createdAt,value
2018-08-13T00:02:11.107Z,16.80
2018-08-13T00:04:39.515Z,16.70
2018-08-13T00:07:07.156Z,16.70
2018-08-13T00:09:40.790Z,16.60
2018-08-13T00:12:08.947Z,16.60
2018-08-13T00:14:36.922Z,16.50
2018-08-13T00:17:04.515Z,16.40
2018-08-13T00:19:32.137Z,16.30
2018-08-13T00:21:59.756Z,16.30
2018-08-13T00:24:27.371Z,16.20
2018-08-13T00:26:55.174Z,16.20
2018-08-13T00:29:22.853Z,16.30
2018-08-13T00:31:50.430Z,16.20
2018-08-13T00:34:18.190Z,16.10
2018-08-13T00:36:45.873Z,16.10
2018-08-13T00:39:13.539Z,16.10
2018-08-13T00:41:41.243Z,16.10
2018-08-13T00:44:08.902Z,16.00
2018-08-13T00:46:36.520Z,16.00
2018-08-13T00:49:05.048Z,15.90
2018-08-13T00:51:33.577Z,15.90
2018-08-13T00:54:01.145Z,15.80
2018-08-13T00:56:28.803Z,15.80
2018-08-13T00:58:56.498Z,15.70
2018-08-13T01:01:24.423Z,15.70
2018-08-13T01:03:52.168Z,15.60
2018-08-13T01:06:19.972Z,15.60
2018-08-13T01:08:47.827Z,15.60
2018-08-13T01:11:15.390Z,15.60
2018-08-13T01:13:42.968Z,15.50
2018-08-13T01:16:10.564Z,15.50
2018-08-13T01:18:38.140Z,15.40
2018-08-13T01:21:05.963Z,15.40
2018-08-13T01:23:33.571Z,15.40
2018-08-13T01:26:01.138Z,15.40
2018-08-13T01:28:28.856Z,15.40
2018-08-13T01:30:56.495Z,15.30
2018-08-13T01:33:24.468Z,15.30
2018-08-13T01:35:52.047Z,15.30
2018-08-13T01:38:19.608Z,15.30
2018-08-13T01:40:47.247Z,15.30
2018-08-13T01:43:15.271Z,15.20
2018-08-13T01:45:43.248Z,15.20
2018-08-13T01:48:10.824Z,15.10
2018-08-13T01:50:38.676Z,15.00
2018-08-13T01:53:09.121Z,15.00
2018-08-13T01:55:36.753Z,15.00
2018-08-13T01:58:04.445Z,14.90
2018-08-13T02:00:32.023Z,14.90
2018-08-13T02:02:59.719Z,14.90
2018-08-13T02:05:27.312Z,14.80
2018-08-13T02:07:55.424Z,14.80
2018-08-13T02:10:23.055Z,14.80
2018-08-13T02:12:50.692Z,14.70
2018-08-13T02:15:18.299Z,14.70
2018-08-13T02:17:45.889Z,14.60
2018-08-13T02:20:13.622Z,14.70
2018-08-13T02:22:41.203Z,14.70
2018-08-13T02:25:08.930Z,14.70
2018-08-13T02:27:36.625Z,14.70
2018-08-13T02:30:07.104Z,14.70
2018-08-13T02:32:34.882Z,14.80
2018-08-13T02:35:02.612Z,14.80
2018-08-13T02:37:30.523Z,14.70
2018-08-13T02:39:58.148Z,14.70
2018-08-13T02:42:26.078Z,14.70
2018-08-13T02:44:53.724Z,14.60
2018-08-13T02:47:21.331Z,14.60
2018-08-13T02:49:48.980Z,14.60
2018-08-13T02:52:16.811Z,14.60
2018-08-13T02:54:44.359Z,14.60
2018-08-13T02:57:12.128Z,14.60
2018-08-13T02:59:39.732Z,14.60
2018-08-13T03:02:07.401Z,14.50
2018-08-13T03:04:35.109Z,14.60
2018-08-13T03:07:02.696Z,14.50
2018-08-13T03:09:30.559Z,14.50
2018-08-13T03:11:58.159Z,14.50
2018-08-13T03:14:25.793Z,14.40
2018-08-13T03:16:53.464Z,14.40
2018-08-13T03:19:21.031Z,14.40
2018-08-13T03:21:48.680Z,14.40
2018-08-13T03:24:16.499Z,14.40
2018-08-13T03:26:44.323Z,14.40
2018-08-13T03:29:11.924Z,14.40
2018-08-13T03:31:39.518Z,14.40
2018-08-13T03:34:07.160Z,14.30
2018-08-13T03:36:35.320Z,14.20
2018-08-13T03:39:05.033Z,14.20
2018-08-13T03:41:32.611Z,14.20
2018-08-13T03:44:00.197Z,14.20
2018-08-13T03:46:27.734Z,14.20
2018-08-13T03:48:55.261Z,14.20
2018-08-13T03:51:22.835Z,14.20
2018-08-13T03:53:50.555Z,14.10
2018-08-13T03:56:18.089Z,14.10
2018-08-13T03:58:45.705Z,14.10
2018-08-13T04:01:13.255Z,14.10
2018-08-13T04:03:40.848Z,14.10
2018-08-13T04:06:08.502Z,14.10
2018-08-13T04:08:36.047Z,14.10
2018-08-13T04:13:28.954Z,14.00
2018-08-13T04:15:56.537Z,14.10
2018-08-13T04:18:24.076Z,14.10
2018-08-13T04:20:51.885Z,14.10
2018-08-13T04:23:19.625Z,14.10
2018-08-13T04:25:47.140Z,14.10
2018-08-13T04:28:14.647Z,14.10
2018-08-13T04:30:43.689Z,14.10
2018-08-13T04:33:11.214Z,14.10
2018-08-13T04:35:38.776Z,14.10
2018-08-13T04:38:06.323Z,14.10
2018-08-13T04:40:33.869Z,14.20
2018-08-13T04:43:01.431Z,14.20
2018-08-13T04:45:29.029Z,14.20
2018-08-13T04:47:56.571Z,14.20
2018-08-13T04:50:24.188Z,14.20
2018-08-13T04:52:51.937Z,14.30
2018-08-13T04:55:20.249Z,14.30
2018-08-13T04:57:47.844Z,14.20
2018-08-13T05:00:15.445Z,14.20
2018-08-13T05:02:43.129Z,14.20
2018-08-13T05:05:11.299Z,14.30
2018-08-13T05:07:39.388Z,14.30
2018-08-13T05:10:08.047Z,14.30
2018-08-13T05:12:35.589Z,14.30
2018-08-13T05:15:04.297Z,14.40
2018-08-13T05:17:31.824Z,14.40
2018-08-13T05:19:59.379Z,14.50
2018-08-13T05:22:27.543Z,14.50
2018-08-13T05:24:55.100Z,14.50
2018-08-13T05:27:23.119Z,14.60
2018-08-13T05:29:50.716Z,14.70
2018-08-13T05:32:18.280Z,14.80
2018-08-13T05:34:45.932Z,14.80
2018-08-13T05:37:13.556Z,14.90
2018-08-13T05:39:41.128Z,15.00
2018-08-13T05:42:09.038Z,15.10
2018-08-13T05:44:36.768Z,15.20
2018-08-13T05:47:04.610Z,15.30
2018-08-13T05:49:32.283Z,15.30
2018-08-13T05:51:59.887Z,15.30
2018-08-13T05:54:34.208Z,15.30
2018-08-13T05:57:01.935Z,15.30
2018-08-13T05:59:29.539Z,15.40
2018-08-13T06:01:57.135Z,15.40
2018-08-13T06:04:24.769Z,15.40
2018-08-13T06:06:52.332Z,15.40
2018-08-13T06:09:19.922Z,15.40
2018-08-13T06:11:47.545Z,15.50
2018-08-13T06:14:15.159Z,15.50
2018-08-13T06:16:42.739Z,15.60
2018-08-13T06:19:10.319Z,15.70
2018-08-13T06:21:37.912Z,15.90
2018-08-13T06:24:05.511Z,16.10
2018-08-13T06:26:33.152Z,16.30
2018-08-13T06:29:07.349Z,16.50
2018-08-13T06:31:35.052Z,16.60
2018-08-13T06:34:02.691Z,16.70
2018-08-13T06:36:30.318Z,16.80
2018-08-13T06:38:58.097Z,16.90
2018-08-13T06:41:25.722Z,17.10
2018-08-13T06:43:53.297Z,17.30
2018-08-13T06:46:20.833Z,17.40
2018-08-13T06:48:48.351Z,17.60
2018-08-13T06:51:15.977Z,17.80
2018-08-13T06:53:43.553Z,18.00
2018-08-13T06:56:17.965Z,18.20
2018-08-13T06:58:45.529Z,18.40
2018-08-13T07:01:13.239Z,18.50
2018-08-13T07:03:40.833Z,18.60
2018-08-13T07:06:08.518Z,18.80
2018-08-13T07:08:36.098Z,18.80
2018-08-13T07:11:03.729Z,18.80
2018-08-13T07:13:31.282Z,18.90
2018-08-13T07:15:58.923Z,19.10
2018-08-13T07:18:26.510Z,19.20
2018-08-13T07:20:54.092Z,19.50
2018-08-13T07:23:21.688Z,19.60
2018-08-13T07:25:49.231Z,19.80
2018-08-13T07:28:16.865Z,19.90
2018-08-13T07:30:44.407Z,20.00
2018-08-13T07:33:12.251Z,20.10
2018-08-13T07:35:39.849Z,20.10
2018-08-13T07:38:07.708Z,20.20
2018-08-13T07:40:35.323Z,20.20
2018-08-13T07:43:03.264Z,20.30
2018-08-13T07:45:30.961Z,20.30
2018-08-13T07:47:58.491Z,20.30
2018-08-13T07:50:26.076Z,20.30
2018-08-13T07:52:53.745Z,20.30
2018-08-13T07:55:21.439Z,20.30
2018-08-13T07:57:49.084Z,20.30
2018-08-13T08:00:18.146Z,20.30
2018-08-13T08:02:46.218Z,20.30
2018-08-13T08:05:14.672Z,20.30
2018-08-13T08:07:42.589Z,20.30
2018-08-13T08:10:12.153Z,20.30
2018-08-13T08:12:40.148Z,20.40
2018-08-13T08:15:10.928Z,20.50
2018-08-13T08:17:38.592Z,20.40
2018-08-13T08:20:06.229Z,20.40
2018-08-13T08:22:33.784Z,20.40
2018-08-13T08:25:01.428Z,20.40
2018-08-13T08:27:29.041Z,20.30
2018-08-13T08:29:56.637Z,20.30
2018-08-13T08:32:24.364Z,20.20
2018-08-13T08:34:51.982Z,20.20
2018-08-13T08:37:19.555Z,20.20
2018-08-13T08:39:47.113Z,20.10
2018-08-13T08:42:14.675Z,20.10
2018-08-13T08:44:42.381Z,20.10
2018-08-13T08:47:10.195Z,20.10
2018-08-13T08:49:38.055Z,20.10
2018-08-13T08:52:05.890Z,20.10
2018-08-13T08:54:33.486Z,20.20
2018-08-13T08:57:01.309Z,20.20
2018-08-13T08:59:29.049Z,20.20
2018-08-13T09:01:56.647Z,20.20
2018-08-13T09:04:24.305Z,20.20
2018-08-13T09:06:51.885Z,20.20
2018-08-13T09:09:19.484Z,20.20
2018-08-13T09:11:47.084Z,20.30
2018-08-13T09:14:14.744Z,20.30
2018-08-13T09:16:44.622Z,20.30
2018-08-13T09:19:23.630Z,20.30
2018-08-13T09:21:52.780Z,20.30
2018-08-13T09:24:31.784Z,20.30
2018-08-13T09:27:10.747Z,20.40
2018-08-13T09:29:49.789Z,20.50
2018-08-13T09:32:32.996Z,20.50
2018-08-13T09:35:33.163Z,20.60
2018-08-13T09:38:00.791Z,20.60
2018-08-13T09:40:29.703Z,20.70
2018-08-13T09:42:57.478Z,20.70
2018-08-13T09:45:25.345Z,20.70
2018-08-13T09:47:52.956Z,20.70
2018-08-13T09:50:20.968Z,20.70
2018-08-13T09:52:49.191Z,20.70
2018-08-13T09:55:17.321Z,20.70
2018-08-13T09:57:45.988Z,20.80
2018-08-13T10:00:20.390Z,20.80
2018-08-13T10:02:48.645Z,20.80
2018-08-13T10:05:16.378Z,20.80
2018-08-13T10:07:44.180Z,20.80
2018-08-13T10:10:12.507Z,20.80
2018-08-13T10:12:41.036Z,20.80
2018-08-13T10:15:09.371Z,20.80
2018-08-13T10:17:37.312Z,20.80
2018-08-13T10:20:06.070Z,20.80
2018-08-13T10:22:33.749Z,20.80
2018-08-13T10:25:01.756Z,20.80
2018-08-13T10:27:29.363Z,20.80
2018-08-13T10:29:56.972Z,20.90
2018-08-13T10:32:24.510Z,20.90
2018-08-13T10:34:52.023Z,21.00
2018-08-13T10:37:19.603Z,21.00
2018-08-13T10:39:47.132Z,21.10
2018-08-13T10:42:14.683Z,21.10
2018-08-13T10:44:42.290Z,21.10
2018-08-13T10:47:09.858Z,21.10
2018-08-13T10:49:37.472Z,21.20
2018-08-13T10:52:05.091Z,21.20
2018-08-13T10:54:32.693Z,21.20
2018-08-13T10:57:00.313Z,21.10
2018-08-13T10:59:28.100Z,21.10
2018-08-13T11:01:55.750Z,21.10
2018-08-13T11:04:23.573Z,21.10
2018-08-13T11:06:51.146Z,21.10
2018-08-13T11:09:18.711Z,21.00
2018-08-13T11:11:46.310Z,21.00
2018-08-13T11:14:13.847Z,21.00
2018-08-13T11:16:41.671Z,20.90
2018-08-13T11:19:09.519Z,20.90
2018-08-13T11:21:37.174Z,20.90
2018-08-13T11:24:04.821Z,20.90
2018-08-13T11:26:32.466Z,20.90
2018-08-13T11:29:00.335Z,20.90
2018-08-13T11:31:27.912Z,20.80
2018-08-13T11:33:55.558Z,20.80
2018-08-13T11:36:23.121Z,20.80
2018-08-13T11:38:50.763Z,20.80
2018-08-13T11:41:18.435Z,20.90
2018-08-13T11:43:46.054Z,20.90
2018-08-13T11:46:13.702Z,20.90
2018-08-13T11:48:41.315Z,21.00
2018-08-13T11:51:09.072Z,21.00
2018-08-13T11:53:36.648Z,21.00
2018-08-13T11:56:04.572Z,21.00
2018-08-13T11:58:32.174Z,21.00
2018-08-13T12:00:59.720Z,20.90
2018-08-13T12:03:27.334Z,20.90
2018-08-13T12:05:54.924Z,20.90
2018-08-13T12:08:22.834Z,20.90
2018-08-13T12:10:50.364Z,20.90
2018-08-13T12:13:18.080Z,20.90
2018-08-13T12:15:45.642Z,20.90
2018-08-13T12:18:13.272Z,20.90
2018-08-13T12:20:40.831Z,20.90
2018-08-13T12:23:08.415Z,20.90
2018-08-13T12:25:35.991Z,20.90
2018-08-13T12:28:03.580Z,20.90
2018-08-13T12:30:31.202Z,21.00
2018-08-13T12:32:58.788Z,21.00
2018-08-13T12:35:26.359Z,21.00
2018-08-13T12:37:53.984Z,21.10
2018-08-13T12:40:21.555Z,21.10
2018-08-13T12:42:49.237Z,21.00
2018-08-13T12:45:17.579Z,21.00
2018-08-13T12:47:45.248Z,21.00
2018-08-13T12:50:15.001Z,21.00
2018-08-13T12:52:43.811Z,20.90
2018-08-13T12:55:11.736Z,20.90
2018-08-13T12:57:39.504Z,20.90
2018-08-13T13:00:10.747Z,20.80
2018-08-13T13:02:38.775Z,20.90
2018-08-13T13:05:07.099Z,21.00
2018-08-13T13:07:34.987Z,21.10
2018-08-13T13:10:02.828Z,21.20
2018-08-13T13:12:30.374Z,21.30
2018-08-13T13:14:57.992Z,21.40
2018-08-13T13:17:25.632Z,21.50
2018-08-13T13:19:53.495Z,21.60
2018-08-13T13:22:21.001Z,21.70
2018-08-13T13:24:48.579Z,21.70
2018-08-13T13:27:16.101Z,21.90
2018-08-13T13:29:43.667Z,22.00
2018-08-13T13:32:11.440Z,22.10
2018-08-13T13:34:39.094Z,22.10
2018-08-13T13:37:06.730Z,22.20
2018-08-13T13:39:34.377Z,22.30
2018-08-13T13:42:02.172Z,22.50
2018-08-13T13:44:29.776Z,22.50
2018-08-13T13:46:57.299Z,22.50
2018-08-13T13:49:24.851Z,22.50
2018-08-13T13:51:52.556Z,22.60
2018-08-13T13:54:20.180Z,22.60
2018-08-13T13:56:48.178Z,22.60
2018-08-13T13:59:15.775Z,22.60
2018-08-13T14:01:43.291Z,22.60
2018-08-13T14:04:10.892Z,22.60
2018-08-13T14:06:38.552Z,22.60
2018-08-13T14:09:08.418Z,22.60
2018-08-13T14:11:37.940Z,22.60
2018-08-13T14:14:06.195Z,22.60
2018-08-13T14:16:33.800Z,22.60
2018-08-13T14:19:01.449Z,22.70
2018-08-13T14:21:29.226Z,22.70
2018-08-13T14:23:57.297Z,22.80
2018-08-13T14:26:24.872Z,22.90
2018-08-13T14:28:52.476Z,23.00
2018-08-13T14:31:20.104Z,23.00
2018-08-13T14:33:47.797Z,23.10
2018-08-13T14:36:15.423Z,23.10
2018-08-13T14:38:43.018Z,23.20
2018-08-13T14:41:10.737Z,23.20
2018-08-13T14:43:38.375Z,23.20
2018-08-13T14:46:06.933Z,23.20
2018-08-13T14:48:34.494Z,23.20
2018-08-13T14:51:02.548Z,23.20
2018-08-13T14:53:30.087Z,23.10
2018-08-13T14:55:57.738Z,23.10
2018-08-13T14:58:25.468Z,23.10
2018-08-13T15:00:53.112Z,23.10
2018-08-13T15:03:20.716Z,23.10
2018-08-13T15:05:48.348Z,23.00
2018-08-13T15:08:15.965Z,23.00
2018-08-13T15:10:50.263Z,23.00
2018-08-13T15:13:17.927Z,22.90
2018-08-13T15:15:45.421Z,23.00
2018-08-13T15:18:13.191Z,22.90
2018-08-13T15:20:41.023Z,22.90
2018-08-13T15:23:09.029Z,22.80
2018-08-13T15:25:37.178Z,22.70
2018-08-13T15:28:04.990Z,22.70
2018-08-13T15:30:32.461Z,22.60
2018-08-13T15:33:00.038Z,22.70
2018-08-13T15:35:27.599Z,22.70
2018-08-13T15:37:55.123Z,22.80
2018-08-13T15:40:22.712Z,22.90
2018-08-13T15:42:50.277Z,22.80
2018-08-13T15:45:22.363Z,22.80
2018-08-13T15:47:50.081Z,22.80
2018-08-13T15:50:18.970Z,22.70
2018-08-13T15:52:46.864Z,22.70
2018-08-13T15:55:14.891Z,22.70
2018-08-13T15:57:43.212Z,22.60
2018-08-13T16:00:15.847Z,22.60
2018-08-13T16:02:43.411Z,22.50
2018-08-13T16:05:11.436Z,22.50
2018-08-13T16:07:39.062Z,22.50
2018-08-13T16:10:08.438Z,22.40
2018-08-13T16:12:36.096Z,22.40
2018-08-13T16:15:04.367Z,22.30
2018-08-13T16:17:32.274Z,22.30
2018-08-13T16:19:59.867Z,22.20
2018-08-13T16:22:27.472Z,22.10
2018-08-13T16:24:55.071Z,21.90
2018-08-13T16:27:22.622Z,21.80
2018-08-13T16:29:50.296Z,21.40
2018-08-13T16:32:17.840Z,21.30
2018-08-13T16:34:45.388Z,21.20
2018-08-13T16:37:13.051Z,21.10
2018-08-13T16:39:40.647Z,20.90
2018-08-13T16:42:08.323Z,20.80
2018-08-13T16:44:35.864Z,20.70
2018-08-13T16:47:03.536Z,20.70
2018-08-13T16:49:31.115Z,20.70
2018-08-13T16:51:58.760Z,20.80
2018-08-13T16:54:26.337Z,20.80
2018-08-13T16:56:53.959Z,20.80
2018-08-13T16:59:21.535Z,20.80
2018-08-13T17:01:49.335Z,20.80
2018-08-13T17:04:16.984Z,20.90
2018-08-13T17:06:44.627Z,20.80
2018-08-13T17:09:12.252Z,20.90
2018-08-13T17:11:39.952Z,20.90
2018-08-13T17:14:09.910Z,20.90
2018-08-13T17:16:39.385Z,20.80
2018-08-13T17:19:07.012Z,20.80
2018-08-13T17:21:34.765Z,20.80
2018-08-13T17:24:02.416Z,20.80
2018-08-13T17:26:30.079Z,20.80
2018-08-13T17:28:57.683Z,20.80
2018-08-13T17:31:25.832Z,20.80
2018-08-13T17:33:53.759Z,20.80
2018-08-13T17:36:22.057Z,20.80
2018-08-13T17:38:49.750Z,20.80
2018-08-13T17:41:17.566Z,20.80
2018-08-13T17:43:45.294Z,20.80
2018-08-13T17:46:13.009Z,20.70
2018-08-13T17:48:40.688Z,20.70
2018-08-13T17:51:08.497Z,20.60
2018-08-13T17:53:36.157Z,20.70
2018-08-13T17:56:03.955Z,20.60
2018-08-13T17:58:31.596Z,20.50
2018-08-13T18:00:59.312Z,20.50
2018-08-13T18:03:27.266Z,20.50
2018-08-13T18:05:55.000Z,20.50
2018-08-13T18:08:22.737Z,20.50
2018-08-13T18:10:50.444Z,20.50
2018-08-13T18:13:18.169Z,20.50
2018-08-13T18:15:45.940Z,20.50
2018-08-13T18:18:13.700Z,20.40
2018-08-13T18:20:41.375Z,20.40
2018-08-13T18:23:09.078Z,20.50
2018-08-13T18:25:37.048Z,20.50
2018-08-13T18:28:04.823Z,20.50
2018-08-13T18:30:32.460Z,20.50
2018-08-13T18:33:00.170Z,20.60
2018-08-13T18:35:27.844Z,20.60
2018-08-13T18:37:55.523Z,20.60
2018-08-13T18:40:26.927Z,20.50
2018-08-13T18:42:54.688Z,20.50
2018-08-13T18:45:22.321Z,20.50
2018-08-13T18:47:50.502Z,20.50
2018-08-13T18:50:19.430Z,20.40
2018-08-13T18:52:47.249Z,20.30
2018-08-13T18:55:17.039Z,20.30
2018-08-13T18:57:45.016Z,20.30
2018-08-13T19:00:18.044Z,20.30
2018-08-13T19:02:45.756Z,20.20
2018-08-13T19:05:14.565Z,20.20
2018-08-13T19:07:43.110Z,20.20
2018-08-13T19:10:12.560Z,20.20
2018-08-13T19:12:40.403Z,20.20
2018-08-13T19:15:10.324Z,20.20
2018-08-13T19:17:38.076Z,20.10
2018-08-13T19:20:07.080Z,20.00
2018-08-13T19:22:34.835Z,20.00
2018-08-13T19:25:02.575Z,19.90
2018-08-13T19:27:30.435Z,19.90
2018-08-13T19:29:58.097Z,20.00
2018-08-13T19:32:26.483Z,20.00
2018-08-13T19:34:54.504Z,20.00
2018-08-13T19:37:22.548Z,20.00
2018-08-13T19:39:50.295Z,20.00
2018-08-13T19:42:18.025Z,19.90
2018-08-13T19:44:45.774Z,19.90
2018-08-13T19:47:13.505Z,19.90
2018-08-13T19:49:41.267Z,19.90
2018-08-13T19:52:08.966Z,19.90
2018-08-13T19:54:37.467Z,20.00
2018-08-13T19:57:05.307Z,20.00
2018-08-13T19:59:32.996Z,19.90
2018-08-13T20:02:00.981Z,19.80
2018-08-13T20:04:28.748Z,19.70
2018-08-13T20:06:56.426Z,19.70
2018-08-13T20:09:24.072Z,19.70
2018-08-13T20:11:52.680Z,19.60
2018-08-13T20:14:20.939Z,19.50
2018-08-13T20:16:48.825Z,19.60
2018-08-13T20:19:16.901Z,19.60
2018-08-13T20:21:44.572Z,19.60
2018-08-13T20:24:12.324Z,19.60
2018-08-13T20:26:40.322Z,19.50
2018-08-13T20:29:08.017Z,19.50
2018-08-13T20:31:35.623Z,19.50
2018-08-13T20:34:03.348Z,19.50
2018-08-13T20:36:30.960Z,19.40
2018-08-13T20:38:58.585Z,19.30
2018-08-13T20:41:26.318Z,19.30
2018-08-13T20:43:54.040Z,19.20
2018-08-13T20:46:21.835Z,19.20
2018-08-13T20:48:49.561Z,19.10
2018-08-13T20:51:17.288Z,19.10
2018-08-13T20:53:45.085Z,19.10
2018-08-13T20:56:12.805Z,19.10
2018-08-13T20:58:40.488Z,19.10
2018-08-13T21:01:08.221Z,19.10
2018-08-13T21:03:35.979Z,19.10
2018-08-13T21:06:03.688Z,19.10
2018-08-13T21:08:31.470Z,19.10
2018-08-13T21:10:59.189Z,19.10
2018-08-13T21:13:26.969Z,19.00
2018-08-13T21:15:55.573Z,19.00
2018-08-13T21:18:24.025Z,18.90
2018-08-13T21:20:51.709Z,18.90
2018-08-13T21:23:19.399Z,18.90
2018-08-13T21:25:47.089Z,18.90
2018-08-13T21:28:15.041Z,18.90
2018-08-13T21:30:43.680Z,18.90
2018-08-13T21:33:11.320Z,18.90
2018-08-13T21:35:39.053Z,18.90
2018-08-13T21:38:06.732Z,18.90
2018-08-13T21:40:34.489Z,18.90
2018-08-13T21:43:02.167Z,18.90
2018-08-13T21:45:29.848Z,18.90
2018-08-13T21:47:57.472Z,18.90
2018-08-13T21:50:25.236Z,18.90
2018-08-13T21:52:52.864Z,18.80
2018-08-13T21:55:20.913Z,18.80
2018-08-13T21:57:48.648Z,18.80
2018-08-13T22:00:30.667Z,18.80
2018-08-13T22:02:59.914Z,18.80
2018-08-13T22:05:27.711Z,18.80
2018-08-13T22:07:55.423Z,18.80
2018-08-13T22:10:23.165Z,18.80
2018-08-13T22:12:50.880Z,18.70
2018-08-13T22:15:23.929Z,18.70
2018-08-13T22:17:51.675Z,18.70
2018-08-13T22:20:19.493Z,18.60
2018-08-13T22:22:47.803Z,18.50
2018-08-13T22:25:20.716Z,18.50
2018-08-13T22:27:48.476Z,18.50
2018-08-13T22:30:16.249Z,18.40
2018-08-13T22:32:43.997Z,18.40
2018-08-13T22:35:11.752Z,18.40
2018-08-13T22:37:41.015Z,18.30
2018-08-13T22:40:16.248Z,18.20
2018-08-13T22:42:44.707Z,18.20
2018-08-13T22:45:14.435Z,18.20
2018-08-13T22:47:42.386Z,18.20
2018-08-13T22:50:10.699Z,18.20
2018-08-13T22:52:38.388Z,18.20
2018-08-13T22:55:08.019Z,18.20
2018-08-13T22:57:35.794Z,18.20
2018-08-13T23:00:04.564Z,18.10
2018-08-13T23:02:32.169Z,18.10
2018-08-13T23:04:59.947Z,18.10
2018-08-13T23:07:27.591Z,18.00
2018-08-13T23:09:55.289Z,18.00
2018-08-13T23:12:23.044Z,17.90
2018-08-13T23:14:50.672Z,17.90
2018-08-13T23:17:18.342Z,17.90
2018-08-13T23:19:46.275Z,17.90
2018-08-13T23:22:58.399Z,17.90
2018-08-13T23:25:26.664Z,17.90
2018-08-13T23:27:55.860Z,17.90
2018-08-13T23:30:23.596Z,17.90
2018-08-13T23:32:52.383Z,17.90
2018-08-13T23:35:21.040Z,17.80
2018-08-13T23:37:49.269Z,17.80
2018-08-13T23:40:17.643Z,17.80
2018-08-13T23:42:45.551Z,17.80
2018-08-13T23:45:16.445Z,17.70
2018-08-13T23:47:44.381Z,17.80
2018-08-13T23:50:13.824Z,17.80
2018-08-13T23:52:41.579Z,17.70
2018-08-13T23:55:15.026Z,17.60
2018-08-13T23:57:42.751Z,17.60
